createdAt,value
2018-05-13T00:01:00.770Z,55.50
2018-05-13T00:03:03.951Z,55.70
2018-05-13T00:05:07.095Z,55.70
2018-05-13T00:07:11.006Z,55.30
2018-05-13T00:09:14.191Z,55.80
2018-05-13T00:11:18.442Z,55.80
2018-05-13T00:13:21.604Z,55.90
2018-05-13T00:15:24.747Z,55.80
2018-05-13T00:17:27.892Z,55.90
2018-05-13T00:19:31.835Z,56.00
2018-05-13T00:21:34.999Z,55.90
2018-05-13T00:23:38.161Z,56.10
2018-05-13T00:25:41.307Z,56.10
2018-05-13T00:27:44.478Z,56.30
2018-05-13T00:29:47.652Z,56.40
2018-05-13T00:31:51.567Z,56.50
2018-05-13T00:33:55.564Z,56.50
2018-05-13T00:35:58.723Z,56.50
2018-05-13T00:38:02.666Z,56.60
2018-05-13T00:40:05.811Z,56.70
2018-05-13T00:42:08.945Z,56.60
2018-05-13T00:44:12.891Z,56.90
2018-05-13T00:46:17.934Z,57.10
2018-05-13T00:48:21.875Z,57.10
2018-05-13T00:50:25.046Z,57.00
2018-05-13T00:52:28.192Z,57.00
2018-05-13T00:54:49.210Z,57.00
2018-05-13T00:56:53.131Z,57.00
2018-05-13T00:58:56.539Z,57.00
2018-05-13T01:01:01.954Z,57.30
2018-05-13T01:03:07.175Z,57.30
2018-05-13T01:05:12.165Z,57.30
2018-05-13T01:07:17.937Z,57.30
2018-05-13T01:09:23.002Z,57.40
2018-05-13T01:11:28.941Z,57.70
2018-05-13T01:13:34.810Z,57.60
2018-05-13T01:15:39.878Z,57.60
2018-05-13T01:17:44.910Z,57.60
2018-05-13T01:19:50.060Z,57.60
2018-05-13T01:21:55.005Z,57.60
2018-05-13T01:24:00.192Z,58.40
2018-05-13T01:26:04.989Z,57.90
2018-05-13T01:28:10.260Z,57.90
2018-05-13T01:30:15.212Z,57.90
2018-05-13T01:32:20.422Z,58.00
2018-05-13T01:34:25.605Z,58.00
2018-05-13T01:36:31.294Z,57.90
2018-05-13T01:38:36.384Z,57.90
2018-05-13T01:40:41.205Z,57.90
2018-05-13T01:42:47.181Z,58.00
2018-05-13T01:44:52.683Z,58.00
2018-05-13T01:46:59.113Z,58.10
2018-05-13T01:49:05.484Z,58.20
2018-05-13T01:51:10.227Z,58.20
2018-05-13T01:53:15.349Z,58.20
2018-05-13T01:55:20.283Z,58.10
2018-05-13T01:57:25.063Z,58.10
2018-05-13T01:59:30.307Z,58.10
2018-05-13T02:01:33.947Z,58.20
2018-05-13T02:03:37.121Z,58.30
2018-05-13T02:05:40.295Z,58.30
2018-05-13T02:07:43.445Z,58.20
2018-05-13T02:09:46.614Z,58.30
2018-05-13T02:11:49.767Z,58.30
2018-05-13T02:13:52.907Z,58.40
2018-05-13T02:15:56.076Z,58.50
2018-05-13T02:17:59.223Z,58.60
2018-05-13T02:20:02.396Z,58.80
2018-05-13T02:22:05.551Z,58.90
2018-05-13T02:24:08.698Z,58.90
2018-05-13T02:26:11.877Z,59.00
2018-05-13T02:28:15.791Z,59.20
2018-05-13T02:30:19.744Z,59.30
2018-05-13T02:32:23.656Z,59.40
2018-05-13T02:34:26.842Z,59.40
2018-05-13T02:36:29.990Z,59.70
2018-05-13T02:38:33.897Z,60.30
2018-05-13T02:40:38.963Z,61.20
2018-05-13T02:42:42.150Z,60.70
2018-05-13T02:44:45.336Z,60.70
2018-05-13T02:46:48.511Z,61.00
2018-05-13T02:48:51.663Z,61.70
2018-05-13T02:50:55.604Z,62.40
2018-05-13T02:52:59.931Z,62.80
2018-05-13T02:55:04.608Z,63.10
2018-05-13T02:57:07.756Z,63.90
2018-05-13T02:59:10.910Z,63.30
2018-05-13T03:01:14.862Z,63.80
2018-05-13T03:03:19.126Z,63.70
2018-05-13T03:05:22.307Z,63.90
2018-05-13T03:07:25.456Z,64.40
2018-05-13T03:09:28.607Z,64.70
2018-05-13T03:11:31.819Z,65.60
2018-05-13T03:13:34.975Z,64.90
2018-05-13T03:15:40.970Z,65.30
2018-05-13T03:17:44.118Z,65.40
2018-05-13T03:19:47.262Z,65.50
2018-05-13T03:21:50.447Z,65.60
2018-05-13T03:23:53.595Z,65.70
2018-05-13T03:25:59.412Z,65.90
2018-05-13T03:28:02.567Z,66.00
2018-05-13T03:30:06.516Z,65.90
2018-05-13T03:32:10.455Z,66.00
2018-05-13T03:34:13.598Z,66.10
2018-05-13T03:36:16.771Z,66.10
2018-05-13T03:38:19.915Z,65.90
2018-05-13T03:40:23.101Z,66.00
2018-05-13T03:42:26.247Z,66.10
2018-05-13T03:44:29.407Z,66.20
2018-05-13T03:46:32.574Z,66.30
2018-05-13T03:48:35.730Z,66.40
2018-05-13T03:50:39.679Z,66.40
2018-05-13T03:52:42.856Z,66.40
2018-05-13T03:54:45.998Z,66.40
2018-05-13T03:56:49.178Z,66.50
2018-05-13T03:58:54.281Z,66.70
2018-05-13T04:01:01.966Z,67.10
2018-05-13T04:03:07.033Z,67.10
2018-05-13T04:05:13.026Z,67.10
2018-05-13T04:07:19.162Z,67.30
2018-05-13T04:09:41.396Z,67.30
2018-05-13T04:12:04.666Z,67.30
2018-05-13T04:14:28.652Z,67.40
2018-05-13T04:16:33.913Z,67.30
2018-05-13T04:18:39.143Z,67.30
2018-05-13T04:20:44.270Z,67.60
2018-05-13T04:22:49.117Z,67.70
2018-05-13T04:24:54.277Z,68.10
2018-05-13T04:26:59.911Z,68.40
2018-05-13T04:29:05.272Z,68.50
2018-05-13T04:31:10.498Z,68.70
2018-05-13T04:33:16.476Z,68.90
2018-05-13T04:35:21.679Z,68.90
2018-05-13T04:37:26.966Z,68.90
2018-05-13T04:39:30.254Z,69.00
2018-05-13T04:41:33.428Z,69.10
2018-05-13T04:43:36.615Z,68.90
2018-05-13T04:45:41.599Z,70.10
2018-05-13T04:47:45.537Z,69.80
2018-05-13T04:49:49.460Z,69.50
2018-05-13T04:51:53.417Z,69.50
2018-05-13T04:53:56.570Z,69.50
2018-05-13T04:56:00.263Z,69.60
2018-05-13T04:58:03.490Z,69.50
2018-05-13T05:00:06.660Z,69.30
2018-05-13T05:02:09.833Z,69.50
2018-05-13T05:04:13.752Z,69.40
2018-05-13T05:06:17.664Z,69.40
2018-05-13T05:08:20.839Z,69.30
2018-05-13T05:10:24.020Z,69.30
2018-05-13T05:12:27.188Z,69.40
2018-05-13T05:14:30.351Z,69.30
2018-05-13T05:16:33.534Z,69.40
2018-05-13T05:18:37.558Z,69.50
2018-05-13T05:20:41.473Z,69.30
2018-05-13T05:22:45.427Z,69.30
2018-05-13T05:24:48.577Z,69.30
2018-05-13T05:26:51.917Z,69.20
2018-05-13T05:28:55.131Z,69.10
2018-05-13T05:30:59.042Z,69.20
2018-05-13T05:33:02.224Z,69.20
2018-05-13T05:35:05.405Z,69.30
2018-05-13T05:37:08.599Z,69.20
2018-05-13T05:39:11.747Z,69.30
2018-05-13T05:41:14.915Z,69.20
2018-05-13T05:43:18.139Z,69.20
2018-05-13T05:45:21.446Z,69.10
2018-05-13T05:47:24.651Z,69.00
2018-05-13T05:49:27.819Z,69.00
2018-05-13T05:51:30.963Z,69.20
2018-05-13T05:53:34.144Z,69.30
2018-05-13T05:55:38.056Z,70.00
2018-05-13T05:57:41.996Z,69.60
2018-05-13T05:59:45.907Z,70.60
2018-05-13T06:01:49.067Z,69.80
2018-05-13T06:03:52.248Z,70.00
2018-05-13T06:05:56.213Z,71.40
2018-05-13T06:07:59.387Z,70.70
2018-05-13T06:10:03.313Z,71.00
2018-05-13T06:12:06.480Z,71.00
2018-05-13T06:14:09.675Z,71.10
2018-05-13T06:16:12.863Z,71.40
2018-05-13T06:18:16.072Z,71.70
2018-05-13T06:20:19.244Z,71.70
2018-05-13T06:22:24.287Z,72.00
2018-05-13T06:24:27.523Z,72.10
2018-05-13T06:26:30.925Z,72.00
2018-05-13T06:28:34.779Z,72.00
2018-05-13T06:30:37.936Z,72.40
2018-05-13T06:32:41.095Z,72.30
2018-05-13T06:34:45.039Z,72.30
2018-05-13T06:36:48.189Z,72.30
2018-05-13T06:38:52.141Z,72.50
2018-05-13T06:40:55.304Z,72.50
2018-05-13T06:42:59.259Z,72.60
2018-05-13T06:45:04.337Z,72.50
2018-05-13T06:47:07.495Z,72.50
2018-05-13T06:49:10.693Z,72.20
2018-05-13T06:51:13.897Z,72.00
2018-05-13T06:53:17.218Z,71.80
2018-05-13T06:55:20.415Z,71.80
2018-05-13T06:57:23.985Z,71.70
2018-05-13T06:59:27.096Z,71.90
2018-05-13T07:01:30.248Z,72.00
2018-05-13T07:03:33.435Z,72.00
2018-05-13T07:05:36.686Z,72.30
2018-05-13T07:07:39.797Z,72.30
2018-05-13T07:09:44.777Z,72.40
2018-05-13T07:11:47.959Z,72.30
2018-05-13T07:13:51.875Z,71.80
2018-05-13T07:15:55.057Z,71.80
2018-05-13T07:17:58.216Z,71.60
2018-05-13T07:20:02.168Z,71.40
2018-05-13T07:22:05.322Z,71.30
2018-05-13T07:24:08.505Z,71.00
2018-05-13T07:26:11.672Z,70.40
2018-05-13T07:28:14.819Z,68.70
2018-05-13T07:30:18.009Z,67.80
2018-05-13T07:32:21.161Z,66.20
2018-05-13T07:34:24.354Z,65.20
2018-05-13T07:36:27.541Z,66.00
2018-05-13T07:38:30.683Z,65.20
2018-05-13T07:40:33.867Z,65.50
2018-05-13T07:42:37.051Z,64.80
2018-05-13T07:44:40.239Z,64.00
2018-05-13T07:46:44.724Z,64.50
2018-05-13T07:48:47.883Z,64.40
2018-05-13T07:50:51.827Z,65.10
2018-05-13T07:52:55.002Z,65.10
2018-05-13T07:54:59.842Z,66.20
2018-05-13T07:57:03.023Z,65.40
2018-05-13T07:59:06.342Z,64.40
2018-05-13T08:01:10.016Z,63.60
2018-05-13T08:03:14.418Z,62.90
2018-05-13T08:05:23.336Z,62.90
2018-05-13T08:07:28.182Z,62.20
2018-05-13T08:09:31.366Z,61.90
2018-05-13T08:11:34.528Z,61.00
2018-05-13T08:13:37.703Z,59.90
2018-05-13T08:15:40.880Z,59.90
2018-05-13T08:17:44.600Z,60.00
2018-05-13T08:19:48.308Z,59.60
2018-05-13T08:21:51.455Z,59.40
2018-05-13T08:23:54.764Z,58.60
2018-05-13T08:25:57.952Z,58.70
2018-05-13T08:28:01.106Z,58.60
2018-05-13T08:30:04.641Z,58.90
2018-05-13T08:32:08.561Z,57.50
2018-05-13T08:34:11.736Z,57.40
2018-05-13T08:36:14.915Z,57.90
2018-05-13T08:38:18.071Z,58.30
2018-05-13T08:40:21.275Z,58.90
2018-05-13T08:42:25.133Z,58.00
2018-05-13T08:44:29.050Z,59.10
2018-05-13T08:46:32.995Z,59.00
2018-05-13T08:48:36.214Z,58.90
2018-05-13T08:50:39.393Z,59.10
2018-05-13T08:52:43.319Z,59.50
2018-05-13T08:54:47.255Z,59.10
2018-05-13T08:56:51.199Z,59.40
2018-05-13T08:58:54.347Z,59.40
2018-05-13T09:00:59.386Z,59.20
2018-05-13T09:03:03.478Z,59.40
2018-05-13T09:05:06.624Z,59.20
2018-05-13T09:07:09.804Z,58.50
2018-05-13T09:09:12.984Z,58.20
2018-05-13T09:11:16.940Z,58.80
2018-05-13T09:13:20.094Z,58.80
2018-05-13T09:15:23.284Z,59.10
2018-05-13T09:17:26.541Z,58.80
2018-05-13T09:19:30.466Z,58.50
2018-05-13T09:21:34.419Z,57.90
2018-05-13T09:23:37.606Z,57.80
2018-05-13T09:25:41.550Z,56.30
2018-05-13T09:27:45.032Z,56.10
2018-05-13T09:29:48.988Z,55.20
2018-05-13T09:31:52.175Z,55.20
2018-05-13T09:33:56.305Z,55.30
2018-05-13T09:36:00.247Z,55.00
2018-05-13T09:38:03.431Z,54.90
2018-05-13T09:40:07.367Z,55.00
2018-05-13T09:42:11.311Z,53.90
2018-05-13T09:44:14.455Z,53.80
2018-05-13T09:46:17.630Z,53.30
2018-05-13T09:48:20.788Z,53.20
2018-05-13T09:50:25.053Z,53.40
2018-05-13T09:52:29.001Z,53.80
2018-05-13T09:54:32.146Z,53.70
2018-05-13T09:56:35.315Z,53.00
2018-05-13T09:58:38.458Z,52.70
2018-05-13T10:00:41.609Z,53.30
2018-05-13T10:02:46.134Z,52.40
2018-05-13T10:04:49.275Z,52.30
2018-05-13T10:06:52.447Z,51.60
2018-05-13T10:08:55.612Z,51.40
2018-05-13T10:10:58.762Z,51.30
2018-05-13T10:13:01.954Z,51.00
2018-05-13T10:15:05.410Z,51.40
2018-05-13T10:17:09.377Z,51.80
2018-05-13T10:19:12.525Z,51.80
2018-05-13T10:21:16.474Z,51.60
2018-05-13T10:23:19.632Z,51.60
2018-05-13T10:25:22.793Z,51.40
2018-05-13T10:27:25.980Z,51.30
2018-05-13T10:29:29.900Z,51.30
2018-05-13T10:31:33.859Z,50.90
2018-05-13T10:33:37.024Z,50.80
2018-05-13T10:35:40.189Z,50.80
2018-05-13T10:37:43.378Z,50.70
2018-05-13T10:39:46.532Z,50.50
2018-05-13T10:41:49.721Z,50.40
2018-05-13T10:43:52.871Z,50.70
2018-05-13T10:45:56.036Z,50.30
2018-05-13T10:47:59.216Z,50.60
2018-05-13T10:50:02.377Z,50.50
2018-05-13T10:52:05.660Z,50.60
2018-05-13T10:54:08.832Z,51.10
2018-05-13T10:56:12.779Z,51.00
2018-05-13T10:58:15.989Z,50.90
2018-05-13T11:00:19.151Z,51.00
2018-05-13T11:02:22.335Z,51.10
2018-05-13T11:04:25.827Z,51.20
2018-05-13T11:06:28.984Z,51.30
2018-05-13T11:08:32.945Z,51.50
2018-05-13T11:10:36.107Z,51.50
2018-05-13T11:12:39.300Z,51.60
2018-05-13T11:14:42.451Z,51.60
2018-05-13T11:16:46.675Z,51.50
2018-05-13T11:18:50.651Z,51.70
2018-05-13T11:20:53.835Z,51.70
2018-05-13T11:22:57.032Z,51.80
2018-05-13T11:25:00.974Z,51.80
2018-05-13T11:27:04.157Z,51.80
2018-05-13T11:29:08.078Z,52.00
2018-05-13T11:31:11.235Z,52.20
2018-05-13T11:33:14.424Z,52.10
2018-05-13T11:35:17.603Z,52.80
2018-05-13T11:37:21.546Z,53.40
2018-05-13T11:39:25.726Z,53.40
2018-05-13T11:41:30.772Z,53.90
2018-05-13T11:43:34.213Z,53.80
2018-05-13T11:45:37.531Z,54.20
2018-05-13T11:47:41.603Z,54.80
2018-05-13T11:49:44.799Z,55.60
2018-05-13T11:51:47.980Z,56.10
2018-05-13T11:53:51.940Z,56.60
2018-05-13T11:55:55.108Z,56.40
2018-05-13T11:57:58.775Z,56.30
2018-05-13T12:00:01.940Z,56.20
2018-05-13T12:02:05.162Z,56.40
2018-05-13T12:04:08.287Z,56.90
2018-05-13T12:06:11.463Z,57.20
2018-05-13T12:08:15.427Z,58.20
2018-05-13T12:10:19.499Z,58.10
2018-05-13T12:12:23.677Z,59.00
2018-05-13T12:14:26.995Z,58.80
2018-05-13T12:16:30.344Z,59.10
2018-05-13T12:18:33.547Z,59.60
2018-05-13T12:20:36.727Z,59.80
2018-05-13T12:22:39.913Z,59.80
2018-05-13T12:24:43.856Z,59.90
2018-05-13T12:26:47.091Z,59.90
2018-05-13T12:28:51.339Z,60.30
2018-05-13T12:30:54.516Z,60.20
2018-05-13T12:32:58.316Z,60.40
2018-05-13T12:35:01.515Z,61.00
2018-05-13T12:37:05.443Z,60.80
2018-05-13T12:39:10.515Z,61.20
2018-05-13T12:41:13.863Z,61.10
2018-05-13T12:43:17.159Z,61.10
2018-05-13T12:45:20.307Z,62.10
2018-05-13T12:47:23.476Z,61.70
2018-05-13T12:49:26.664Z,62.20
2018-05-13T12:51:31.399Z,62.20
2018-05-13T12:53:35.358Z,62.10
2018-05-13T12:55:38.911Z,62.20
2018-05-13T12:57:42.072Z,62.10
2018-05-13T12:59:45.271Z,62.20
2018-05-13T13:01:48.436Z,62.00
2018-05-13T13:03:51.713Z,62.20
2018-05-13T13:05:55.640Z,62.20
2018-05-13T13:07:58.806Z,62.20
2018-05-13T13:10:02.760Z,61.30
2018-05-13T13:12:05.917Z,61.20
2018-05-13T13:14:10.228Z,61.70
2018-05-13T13:16:13.400Z,62.30
2018-05-13T13:18:17.391Z,62.20
2018-05-13T13:20:20.571Z,62.20
2018-05-13T13:22:23.736Z,62.70
2018-05-13T13:24:26.915Z,62.40
2018-05-13T13:26:30.631Z,62.50
2018-05-13T13:28:33.903Z,62.50
2018-05-13T13:30:37.128Z,62.50
2018-05-13T13:32:40.385Z,62.80
2018-05-13T13:34:44.341Z,62.10
2018-05-13T13:36:47.539Z,62.10
2018-05-13T13:38:50.724Z,62.10
2018-05-13T13:40:54.725Z,62.90
2018-05-13T13:42:58.676Z,63.30
2018-05-13T13:45:02.915Z,63.20
2018-05-13T13:47:06.899Z,63.00
2018-05-13T13:49:11.995Z,63.00
2018-05-13T13:51:15.924Z,63.50
2018-05-13T13:53:19.148Z,63.50
2018-05-13T13:55:25.437Z,63.00
2018-05-13T13:57:28.624Z,63.00
2018-05-13T13:59:31.856Z,63.50
2018-05-13T14:01:35.015Z,63.10
2018-05-13T14:03:38.176Z,62.70
2018-05-13T14:05:41.354Z,62.60
2018-05-13T14:07:45.316Z,62.70
2018-05-13T14:09:48.499Z,62.80
2018-05-13T14:11:51.688Z,62.90
2018-05-13T14:13:54.832Z,62.80
2018-05-13T14:15:58.351Z,62.10
2018-05-13T14:18:01.935Z,62.50
2018-05-13T14:20:05.179Z,63.00
2018-05-13T14:22:08.275Z,62.60
2018-05-13T14:24:11.470Z,62.30
2018-05-13T14:26:14.662Z,61.30
2018-05-13T14:28:18.634Z,61.60
2018-05-13T14:30:21.816Z,61.50
2018-05-13T14:32:25.005Z,61.00
2018-05-13T14:34:28.956Z,61.40
2018-05-13T14:36:32.110Z,61.30
2018-05-13T14:38:35.302Z,61.40
2018-05-13T14:40:38.507Z,61.20
2018-05-13T14:42:41.665Z,60.90
2018-05-13T14:44:45.630Z,61.30
2018-05-13T14:46:48.790Z,61.30
2018-05-13T14:48:51.971Z,61.30
2018-05-13T14:50:55.160Z,62.30
2018-05-13T14:52:58.315Z,61.70
2018-05-13T14:55:01.494Z,61.90
2018-05-13T14:57:04.805Z,61.80
2018-05-13T14:59:08.029Z,61.80
2018-05-13T15:01:11.211Z,61.70
2018-05-13T15:03:15.673Z,61.50
2018-05-13T15:05:18.871Z,61.40
2018-05-13T15:07:31.840Z,61.50
2018-05-13T15:09:35.767Z,61.30
2018-05-13T15:11:39.711Z,61.60
2018-05-13T15:13:42.884Z,61.60
2018-05-13T15:15:46.083Z,61.70
2018-05-13T15:17:49.251Z,62.10
2018-05-13T15:19:52.408Z,62.20
2018-05-13T15:21:55.706Z,62.30
2018-05-13T15:23:59.970Z,62.70
2018-05-13T15:26:03.948Z,63.00
2018-05-13T15:28:07.121Z,63.00
2018-05-13T15:30:10.316Z,62.90
2018-05-13T15:32:15.377Z,62.90
2018-05-13T15:34:18.695Z,63.00
2018-05-13T15:36:21.895Z,62.80
2018-05-13T15:38:25.819Z,62.80
2018-05-13T15:40:29.776Z,62.70
2018-05-13T15:42:32.960Z,62.70
2018-05-13T15:44:36.131Z,62.70
2018-05-13T15:46:39.367Z,62.60
2018-05-13T15:48:43.296Z,62.60
2018-05-13T15:50:47.296Z,62.40
2018-05-13T15:52:50.472Z,62.40
2018-05-13T15:54:53.665Z,62.70
2018-05-13T15:56:56.848Z,62.70
2018-05-13T15:59:00.020Z,63.00
2018-05-13T16:01:03.288Z,62.70
2018-05-13T16:03:06.447Z,62.90
2018-05-13T16:05:09.614Z,62.90
2018-05-13T16:07:12.820Z,63.00
2018-05-13T16:09:15.992Z,62.80
2018-05-13T16:11:19.220Z,62.70
2018-05-13T16:13:22.497Z,62.90
2018-05-13T16:15:25.727Z,63.10
2018-05-13T16:17:29.692Z,63.10
2018-05-13T16:19:32.886Z,63.10
2018-05-13T16:21:36.081Z,62.80
2018-05-13T16:23:40.011Z,62.90
2018-05-13T16:25:43.177Z,62.80
2018-05-13T16:27:46.367Z,63.00
2018-05-13T16:29:49.537Z,63.10
2018-05-13T16:31:52.720Z,63.10
2018-05-13T16:33:56.682Z,63.20
2018-05-13T16:35:59.839Z,63.20
2018-05-13T16:38:03.795Z,63.40
2018-05-13T16:40:07.737Z,63.90
2018-05-13T16:42:10.927Z,63.90
2018-05-13T16:44:15.984Z,63.70
2018-05-13T16:46:20.000Z,63.80
2018-05-13T16:48:23.113Z,63.80
2018-05-13T16:50:27.040Z,63.90
2018-05-13T16:52:30.986Z,64.10
2018-05-13T16:54:34.148Z,64.10
2018-05-13T16:56:38.814Z,64.20
2018-05-13T16:58:42.778Z,64.20
2018-05-13T17:00:45.936Z,64.10
2018-05-13T17:02:49.915Z,64.40
2018-05-13T17:04:53.071Z,64.50
2018-05-13T17:06:56.987Z,64.60
2018-05-13T17:09:00.168Z,64.60
2018-05-13T17:11:03.325Z,64.50
2018-05-13T17:13:07.277Z,64.60
2018-05-13T17:15:10.436Z,64.60
2018-05-13T17:17:13.670Z,64.80
2018-05-13T17:19:17.566Z,64.40
2018-05-13T17:21:20.731Z,64.40
2018-05-13T17:23:23.925Z,64.10
2018-05-13T17:25:27.111Z,64.20
2018-05-13T17:27:31.072Z,63.80
2018-05-13T17:29:34.237Z,63.80
2018-05-13T17:31:37.415Z,63.80
2018-05-13T17:33:40.590Z,63.90
2018-05-13T17:35:43.883Z,63.90
2018-05-13T17:37:47.837Z,64.40
2018-05-13T17:39:50.995Z,64.30
2018-05-13T17:41:54.914Z,64.40
2018-05-13T17:43:58.104Z,64.50
2018-05-13T17:46:01.272Z,64.70
2018-05-13T17:48:04.467Z,64.80
2018-05-13T17:50:08.490Z,64.90
2018-05-13T17:52:12.443Z,65.10
2018-05-13T17:54:15.628Z,65.10
2018-05-13T17:56:21.527Z,65.20
2018-05-13T17:58:24.723Z,65.30
2018-05-13T18:00:28.241Z,65.10
2018-05-13T18:02:31.504Z,65.10
2018-05-13T18:04:38.782Z,65.50
2018-05-13T18:06:43.151Z,65.50
2018-05-13T18:08:46.711Z,65.40
2018-05-13T18:10:49.894Z,65.00
2018-05-13T18:12:53.851Z,65.50
2018-05-13T18:14:57.039Z,65.50
2018-05-13T18:17:00.232Z,65.30
2018-05-13T18:19:04.264Z,65.40
2018-05-13T18:21:07.430Z,65.40
2018-05-13T18:23:10.782Z,65.20
2018-05-13T18:25:14.733Z,65.80
2018-05-13T18:27:17.891Z,65.80
2018-05-13T18:29:21.114Z,65.90
2018-05-13T18:31:24.295Z,65.90
2018-05-13T18:33:27.594Z,66.00
2018-05-13T18:35:30.800Z,66.10
2018-05-13T18:37:33.966Z,66.10
2018-05-13T18:39:37.178Z,66.00
2018-05-13T18:41:41.201Z,65.70
2018-05-13T18:43:44.615Z,65.70
2018-05-13T18:45:48.579Z,65.70
2018-05-13T18:47:51.747Z,65.60
2018-05-13T18:49:55.694Z,66.00
2018-05-13T18:51:58.985Z,65.90
2018-05-13T18:54:04.265Z,66.10
2018-05-13T18:56:07.428Z,66.10
2018-05-13T18:58:10.624Z,66.20
2018-05-13T19:00:13.782Z,66.20
2018-05-13T19:02:16.948Z,66.20
2018-05-13T19:04:21.748Z,66.20
2018-05-13T19:06:25.022Z,66.30
2018-05-13T19:08:28.145Z,66.30
2018-05-13T19:10:32.091Z,65.90
2018-05-13T19:12:35.252Z,65.80
2018-05-13T19:14:38.453Z,65.80
2018-05-13T19:16:41.616Z,65.40
2018-05-13T19:18:44.803Z,65.90
2018-05-13T19:20:49.390Z,65.80
2018-05-13T19:22:52.561Z,65.90
2018-05-13T19:24:55.744Z,66.00
2018-05-13T19:26:59.689Z,66.00
2018-05-13T19:29:04.010Z,66.00
2018-05-13T19:31:08.077Z,66.10
2018-05-13T19:33:11.257Z,66.10
2018-05-13T19:35:15.214Z,65.90
2018-05-13T19:37:18.367Z,65.90
2018-05-13T19:39:21.552Z,66.10
2018-05-13T19:41:24.879Z,66.10
2018-05-13T19:43:28.130Z,66.20
2018-05-13T19:45:32.060Z,66.40
2018-05-13T19:47:35.219Z,66.40
2018-05-13T19:49:39.910Z,66.50
2018-05-13T19:51:44.200Z,66.40
2018-05-13T19:53:47.359Z,66.30
2018-05-13T19:55:50.531Z,66.40
2018-05-13T19:57:54.460Z,67.60
2018-05-13T19:59:58.419Z,67.10
2018-05-13T20:02:01.584Z,67.00
2018-05-13T20:04:05.785Z,66.30
2018-05-13T20:06:11.500Z,66.90
2018-05-13T20:08:14.848Z,66.90
2018-05-13T20:10:18.074Z,66.80
2018-05-13T20:12:21.393Z,66.70
2018-05-13T20:14:24.570Z,66.70
2018-05-13T20:16:27.766Z,66.90
2018-05-13T20:18:30.957Z,67.00
2018-05-13T20:20:34.910Z,67.10
2018-05-13T20:25:24.222Z,67.30
2018-05-13T20:27:27.381Z,67.00
2018-05-13T20:29:31.305Z,67.40
2018-05-13T20:31:35.655Z,67.30
2018-05-13T20:33:40.086Z,67.40
2018-05-13T20:35:44.611Z,67.40
2018-05-13T20:37:49.194Z,67.40
2018-05-13T20:39:52.381Z,67.50
2018-05-13T20:41:55.554Z,67.40
2018-05-13T20:43:58.713Z,67.40
2018-05-13T20:46:01.887Z,67.40
2018-05-13T20:48:05.811Z,68.40
2018-05-13T20:50:09.757Z,67.50
2018-05-13T20:52:12.938Z,67.40
2018-05-13T20:54:16.091Z,67.40
2018-05-13T20:56:19.289Z,67.40
2018-05-13T20:58:22.450Z,67.40
2018-05-13T21:00:26.945Z,67.40
2018-05-13T21:02:30.212Z,67.40
2018-05-13T21:04:33.395Z,67.40
2018-05-13T21:06:36.580Z,67.30
2018-05-13T21:08:39.757Z,67.30
2018-05-13T21:10:44.836Z,67.30
2018-05-13T21:12:48.001Z,67.30
2018-05-13T21:14:51.475Z,67.30
2018-05-13T21:16:54.703Z,67.90
2018-05-13T21:18:57.867Z,67.10
2018-05-13T21:21:01.056Z,67.20
2018-05-13T21:23:05.724Z,67.20
2018-05-13T21:25:08.921Z,67.10
2018-05-13T21:27:12.114Z,67.60
2018-05-13T21:29:16.044Z,67.90
2018-05-13T21:31:20.005Z,67.90
2018-05-13T21:33:23.278Z,67.90
2018-05-13T21:35:27.243Z,67.90
2018-05-13T21:37:30.437Z,67.90
2018-05-13T21:39:33.622Z,67.80
2018-05-13T21:41:37.576Z,67.80
2018-05-13T21:43:40.765Z,67.80
2018-05-13T21:45:45.852Z,67.80
2018-05-13T21:47:49.025Z,67.80
2018-05-13T21:49:52.205Z,67.90
2018-05-13T21:51:55.409Z,68.00
2018-05-13T21:53:58.559Z,67.90
2018-05-13T21:56:01.740Z,68.10
2018-05-13T21:58:05.308Z,68.20
2018-05-13T22:00:08.463Z,68.10
2018-05-13T22:02:12.430Z,68.20
2018-05-13T22:04:15.611Z,68.20
2018-05-13T22:06:19.592Z,68.00
2018-05-13T22:08:22.759Z,68.00
2018-05-13T22:10:25.925Z,68.20
2018-05-13T22:12:29.120Z,68.30
2018-05-13T22:14:32.275Z,68.20
2018-05-13T22:16:35.486Z,68.00
2018-05-13T22:18:38.640Z,67.90
2018-05-13T22:20:42.571Z,68.10
2018-05-13T22:22:45.763Z,68.20
2018-05-13T22:24:48.933Z,68.30
2018-05-13T22:26:52.894Z,68.00
2018-05-13T22:28:56.053Z,68.70
2018-05-13T22:30:59.977Z,67.80
2018-05-13T22:33:03.922Z,68.10
2018-05-13T22:35:07.079Z,67.80
2018-05-13T22:37:10.268Z,68.00
2018-05-13T22:39:13.424Z,68.00
2018-05-13T22:41:16.603Z,68.00
2018-05-13T22:43:19.763Z,68.00
2018-05-13T22:45:23.679Z,68.00
2018-05-13T22:47:27.721Z,67.80
2018-05-13T22:49:30.826Z,67.80
2018-05-13T22:51:34.024Z,67.80
2018-05-13T22:53:37.976Z,68.10
2018-05-13T22:55:41.136Z,68.10
2018-05-13T22:57:44.315Z,68.10
2018-05-13T22:59:48.438Z,68.30
2018-05-13T23:01:52.133Z,68.30
2018-05-13T23:03:55.279Z,68.40
2018-05-13T23:05:58.430Z,68.30
2018-05-13T23:08:02.391Z,68.30
2018-05-13T23:10:06.899Z,68.30
2018-05-13T23:12:10.846Z,68.30
2018-05-13T23:14:14.035Z,68.20
2018-05-13T23:16:17.194Z,68.20
2018-05-13T23:18:20.379Z,68.20
2018-05-13T23:20:23.616Z,68.20
2018-05-13T23:22:36.329Z,68.30
2018-05-13T23:24:39.484Z,68.30
2018-05-13T23:26:43.517Z,68.50
2018-05-13T23:28:47.446Z,68.60
2018-05-13T23:30:51.372Z,68.60
2018-05-13T23:32:55.328Z,68.60
2018-05-13T23:34:58.708Z,68.50
2018-05-13T23:37:02.655Z,68.70
2018-05-13T23:39:06.610Z,68.70
2018-05-13T23:41:09.771Z,68.70
2018-05-13T23:43:12.969Z,68.80
2018-05-13T23:45:16.902Z,69.00
2018-05-13T23:47:20.099Z,69.00
2018-05-13T23:49:24.020Z,69.10
2018-05-13T23:51:27.964Z,69.10
2018-05-13T23:53:31.160Z,69.10
2018-05-13T23:55:35.080Z,69.30
2018-05-13T23:57:38.259Z,69.30
2018-05-13T23:59:41.411Z,69.30
